createdAt,value
2018-09-16T00:01:24.049Z,100818.45
2018-09-16T00:03:51.716Z,100814.50
2018-09-16T00:06:19.414Z,100810.91
2018-09-16T00:08:47.057Z,100805.84
2018-09-16T00:11:14.736Z,100807.76
2018-09-16T00:13:42.429Z,100808.33
2018-09-16T00:16:10.105Z,100797.03
2018-09-16T00:18:37.752Z,100798.23
2018-09-16T00:21:05.467Z,100804.28
2018-09-16T00:23:33.136Z,100808.38
2018-09-16T00:26:00.760Z,100812.70
2018-09-16T00:28:28.470Z,100814.52
2018-09-16T00:30:56.136Z,100807.06
2018-09-16T00:33:23.736Z,100814.62
2018-09-16T00:35:51.440Z,100805.38
2018-09-16T00:38:19.130Z,100808.11
2018-09-16T00:40:46.770Z,100803.92
2018-09-16T00:43:14.390Z,100789.02
2018-09-16T00:45:42.142Z,100804.56
2018-09-16T00:48:09.820Z,100805.02
2018-09-16T00:50:37.531Z,100804.84
2018-09-16T00:53:05.260Z,100808.09
2018-09-16T00:55:32.908Z,100806.28
2018-09-16T00:58:00.553Z,100810.61
2018-09-16T01:00:28.431Z,100799.95
2018-09-16T01:02:56.140Z,100804.00
2018-09-16T01:05:23.902Z,100806.25
2018-09-16T01:07:51.638Z,100804.34
2018-09-16T01:10:19.378Z,100803.53
2018-09-16T01:12:47.013Z,100805.41
2018-09-16T01:15:14.670Z,100806.34
2018-09-16T01:17:42.393Z,100801.90
2018-09-16T01:20:10.227Z,100805.38
2018-09-16T01:22:37.905Z,100803.17
2018-09-16T01:25:05.889Z,100809.14
2018-09-16T01:27:33.567Z,100811.97
2018-09-16T01:30:01.286Z,100807.09
2018-09-16T01:32:28.899Z,100806.13
2018-09-16T01:34:56.763Z,100799.81
2018-09-16T01:37:30.328Z,100804.40
2018-09-16T01:39:57.990Z,100807.13
2018-09-16T01:42:25.653Z,100799.77
2018-09-16T01:44:53.353Z,100803.61
2018-09-16T01:47:21.039Z,100805.91
2018-09-16T01:49:48.629Z,100806.81
2018-09-16T01:52:16.321Z,100805.70
2018-09-16T01:54:44.001Z,100805.28
2018-09-16T01:57:11.758Z,100800.20
2018-09-16T01:59:39.451Z,100799.78
2018-09-16T02:02:07.095Z,100811.02
2018-09-16T02:04:43.482Z,100811.72
2018-09-16T02:07:12.467Z,100809.66
2018-09-16T02:09:40.179Z,100800.75
2018-09-16T02:12:08.068Z,100800.92
2018-09-16T02:14:35.729Z,100800.17
2018-09-16T02:17:03.424Z,100802.28
2018-09-16T02:19:31.088Z,100802.23
2018-09-16T02:21:58.706Z,100805.42
2018-09-16T02:24:26.360Z,100806.64
2018-09-16T02:26:54.054Z,100795.48
2018-09-16T02:29:21.820Z,100795.17
2018-09-16T02:31:50.446Z,100793.79
2018-09-16T02:34:18.106Z,100794.02
2018-09-16T02:36:45.811Z,100802.59
2018-09-16T02:39:13.571Z,100793.95
2018-09-16T02:41:41.248Z,100793.81
2018-09-16T02:44:09.012Z,100792.06
2018-09-16T02:46:36.665Z,100790.47
2018-09-16T02:49:04.331Z,100792.16
2018-09-16T02:51:32.092Z,100797.03
2018-09-16T02:53:59.760Z,100798.23
2018-09-16T02:56:27.657Z,100803.11
2018-09-16T02:58:55.351Z,100790.34
2018-09-16T03:01:23.217Z,100793.76
2018-09-16T03:03:50.910Z,100801.45
2018-09-16T03:06:23.241Z,100803.20
2018-09-16T03:08:50.998Z,100800.11
2018-09-16T03:11:18.669Z,100802.39
2018-09-16T03:13:46.379Z,100794.44
2018-09-16T03:16:14.110Z,100788.47
2018-09-16T03:18:41.765Z,100788.66
2018-09-16T03:21:09.346Z,100788.80
2018-09-16T03:23:37.014Z,100782.59
2018-09-16T03:26:04.721Z,100789.55
2018-09-16T03:28:32.420Z,100784.70
2018-09-16T03:31:00.060Z,100786.41
2018-09-16T03:33:27.741Z,100780.91
2018-09-16T03:35:55.349Z,100779.84
2018-09-16T03:38:23.030Z,100781.75
2018-09-16T03:40:50.830Z,100779.68
2018-09-16T03:43:18.541Z,100778.84
2018-09-16T03:45:46.331Z,100782.02
2018-09-16T03:48:14.019Z,100777.52
2018-09-16T03:50:41.727Z,100780.62
2018-09-16T03:53:09.422Z,100782.31
2018-09-16T03:55:37.072Z,100780.51
2018-09-16T03:58:04.877Z,100772.09
2018-09-16T04:00:32.541Z,100776.66
2018-09-16T04:03:00.213Z,100780.64
2018-09-16T04:05:27.815Z,100776.42
2018-09-16T04:07:55.445Z,100768.47
2018-09-16T04:10:23.145Z,100769.16
2018-09-16T04:12:50.903Z,100765.63
2018-09-16T04:15:18.992Z,100765.08
2018-09-16T04:17:46.747Z,100770.42
2018-09-16T04:20:14.513Z,100776.89
2018-09-16T04:22:42.251Z,100777.62
2018-09-16T04:25:09.912Z,100771.92
2018-09-16T04:27:37.594Z,100772.83
2018-09-16T04:30:05.696Z,100774.45
2018-09-16T04:32:33.396Z,100774.61
2018-09-16T04:35:00.994Z,100774.27
2018-09-16T04:37:28.626Z,100772.48
2018-09-16T04:39:57.054Z,100769.27
2018-09-16T04:42:24.740Z,100775.72
2018-09-16T04:44:52.387Z,100766.91
2018-09-16T04:47:20.116Z,100776.48
2018-09-16T04:49:47.843Z,100775.06
2018-09-16T04:52:15.557Z,100771.63
2018-09-16T04:54:43.220Z,100774.88
2018-09-16T04:57:10.905Z,100768.69
2018-09-16T04:59:38.548Z,100770.66
2018-09-16T05:02:06.311Z,100773.75
2018-09-16T05:04:33.969Z,100771.69
2018-09-16T05:07:01.543Z,100771.78
2018-09-16T05:09:30.205Z,100777.86
2018-09-16T05:11:57.845Z,100771.36
2018-09-16T05:14:25.555Z,100771.48
2018-09-16T05:16:53.210Z,100778.65
2018-09-16T05:19:20.991Z,100783.97
2018-09-16T05:21:48.685Z,100780.92
2018-09-16T05:24:16.306Z,100782.58
2018-09-16T05:26:44.538Z,100788.70
2018-09-16T05:29:12.179Z,100793.92
2018-09-16T05:31:39.955Z,100793.27
2018-09-16T05:34:07.614Z,100804.91
2018-09-16T05:36:35.427Z,100803.75
2018-09-16T05:39:04.273Z,100794.72
2018-09-16T05:41:31.925Z,100795.74
2018-09-16T05:43:59.625Z,100796.58
2018-09-16T05:46:27.302Z,100804.18
2018-09-16T05:48:54.930Z,100802.91
2018-09-16T05:51:22.580Z,100804.30
2018-09-16T05:53:50.250Z,100805.08
2018-09-16T05:56:18.069Z,100808.95
2018-09-16T05:58:45.708Z,100807.30
2018-09-16T06:01:13.378Z,100810.44
2018-09-16T06:03:41.083Z,100808.30
2018-09-16T06:06:08.786Z,100814.64
2018-09-16T06:08:37.261Z,100816.33
2018-09-16T06:11:05.610Z,100814.27
2018-09-16T06:13:33.258Z,100815.39
2018-09-16T06:16:00.870Z,100814.58
2018-09-16T06:18:28.431Z,100815.20
2018-09-16T06:20:56.066Z,100820.03
2018-09-16T06:23:23.698Z,100822.33
2018-09-16T06:25:51.336Z,100808.94
2018-09-16T06:28:19.075Z,100810.49
2018-09-16T06:30:46.772Z,100814.11
2018-09-16T06:33:14.503Z,100811.81
2018-09-16T06:35:42.122Z,100812.39
2018-09-16T06:38:09.833Z,100815.22
2018-09-16T06:40:37.489Z,100812.33
2018-09-16T06:43:05.445Z,100817.70
2018-09-16T06:45:33.418Z,100812.53
2018-09-16T06:48:01.123Z,100813.99
2018-09-16T06:50:28.914Z,100812.80
2018-09-16T06:52:56.655Z,100810.63
2018-09-16T06:55:24.361Z,100817.13
2018-09-16T06:57:51.977Z,100816.70
2018-09-16T07:00:19.563Z,100818.14
2018-09-16T07:02:47.180Z,100825.06
2018-09-16T07:05:14.945Z,100823.91
2018-09-16T07:07:42.710Z,100831.42
2018-09-16T07:10:10.394Z,100824.25
2018-09-16T07:12:38.015Z,100832.65
2018-09-16T07:15:05.827Z,100834.24
2018-09-16T07:17:33.479Z,100830.80
2018-09-16T07:20:01.145Z,100830.85
2018-09-16T07:22:28.820Z,100834.47
2018-09-16T07:24:56.451Z,100833.94
2018-09-16T07:27:24.126Z,100836.73
2018-09-16T07:29:51.728Z,100835.52
2018-09-16T07:32:19.418Z,100839.00
2018-09-16T07:34:47.126Z,100826.64
2018-09-16T07:37:14.956Z,100827.08
2018-09-16T07:39:42.587Z,100821.19
2018-09-16T07:42:10.538Z,100817.89
2018-09-16T07:44:38.240Z,100813.31
2018-09-16T07:47:05.929Z,100813.92
2018-09-16T07:49:33.561Z,100820.38
2018-09-16T07:52:01.205Z,100817.80
2018-09-16T07:54:28.974Z,100820.88
2018-09-16T07:56:56.645Z,100821.71
2018-09-16T07:59:24.316Z,100825.36
2018-09-16T08:01:51.976Z,100824.86
2018-09-16T08:04:19.666Z,100826.06
2018-09-16T08:06:47.326Z,100823.37
2018-09-16T08:09:15.066Z,100821.38
2018-09-16T08:11:42.801Z,100818.79
2018-09-16T08:14:10.514Z,100818.41
2018-09-16T08:16:38.262Z,100814.50
2018-09-16T08:19:06.782Z,100816.13
2018-09-16T08:21:34.626Z,100810.22
2018-09-16T08:24:02.306Z,100808.03
2018-09-16T08:26:30.072Z,100809.89
2018-09-16T08:28:57.740Z,100805.45
2018-09-16T08:31:25.416Z,100806.76
2018-09-16T08:33:53.109Z,100807.88
2018-09-16T08:36:20.771Z,100803.70
2018-09-16T08:38:48.423Z,100803.42
2018-09-16T08:41:16.117Z,100805.81
2018-09-16T08:43:43.865Z,100794.81
2018-09-16T08:46:11.511Z,100791.20
2018-09-16T08:48:39.331Z,100794.81
2018-09-16T08:51:07.655Z,100789.19
2018-09-16T08:53:35.344Z,100786.07
2018-09-16T08:56:03.077Z,100790.11
2018-09-16T08:58:31.113Z,100786.67
2018-09-16T09:00:58.741Z,100792.59
2018-09-16T09:03:26.435Z,100797.77
2018-09-16T09:05:54.151Z,100793.23
2018-09-16T09:08:21.853Z,100796.28
2018-09-16T09:10:49.533Z,100788.59
2018-09-16T09:13:17.154Z,100785.14
2018-09-16T09:15:44.989Z,100784.61
2018-09-16T09:18:13.022Z,100773.42
2018-09-16T09:20:40.762Z,100780.42
2018-09-16T09:23:08.472Z,100786.92
2018-09-16T09:25:36.038Z,100784.61
2018-09-16T09:28:03.762Z,100781.45
2018-09-16T09:30:31.411Z,100778.42
2018-09-16T09:32:59.108Z,100773.92
2018-09-16T09:35:26.912Z,100776.90
2018-09-16T09:37:54.574Z,100776.08
2018-09-16T09:40:22.344Z,100767.01
2018-09-16T09:42:50.054Z,100758.03
2018-09-16T09:45:17.738Z,100760.42
2018-09-16T09:47:45.454Z,100763.05
2018-09-16T09:50:13.230Z,100753.13
2018-09-16T09:52:40.864Z,100747.44
2018-09-16T09:55:08.576Z,100744.50
2018-09-16T09:57:36.225Z,100738.41
2018-09-16T10:00:04.154Z,100741.55
2018-09-16T10:02:31.851Z,100741.64
2018-09-16T10:04:59.631Z,100737.17
2018-09-16T10:07:27.749Z,100738.72
2018-09-16T10:09:55.503Z,100731.61
2018-09-16T10:12:23.749Z,100734.41
2018-09-16T10:14:51.984Z,100726.80
2018-09-16T10:17:20.359Z,100718.27
2018-09-16T10:19:48.019Z,100717.83
2018-09-16T10:22:15.752Z,100712.23
2018-09-16T10:24:43.499Z,100715.15
2018-09-16T10:27:11.524Z,100710.45
2018-09-16T10:29:39.231Z,100706.93
2018-09-16T10:32:06.898Z,100708.32
2018-09-16T10:34:35.184Z,100704.59
2018-09-16T10:37:02.826Z,100700.69
2018-09-16T10:39:30.555Z,100699.77
2018-09-16T10:41:59.139Z,100699.29
2018-09-16T10:44:26.827Z,100695.48
2018-09-16T10:46:54.552Z,100690.87
2018-09-16T10:49:22.244Z,100693.61
2018-09-16T10:51:49.962Z,100689.11
2018-09-16T10:54:17.685Z,100688.36
2018-09-16T10:56:45.600Z,100680.15
2018-09-16T10:59:16.565Z,100686.97
2018-09-16T11:01:44.649Z,100685.07
2018-09-16T11:04:12.386Z,100674.19
2018-09-16T11:06:40.013Z,100672.79
2018-09-16T11:09:09.014Z,100664.28
2018-09-16T11:11:36.636Z,100667.64
2018-09-16T11:14:04.390Z,100662.00
2018-09-16T11:16:32.103Z,100665.74
2018-09-16T11:18:59.749Z,100659.36
2018-09-16T11:21:27.340Z,100658.05
2018-09-16T11:23:55.091Z,100665.01
2018-09-16T11:26:22.888Z,100657.93
2018-09-16T11:28:50.583Z,100660.28
2018-09-16T11:31:18.686Z,100662.41
2018-09-16T11:33:46.359Z,100660.02
2018-09-16T11:36:14.849Z,100651.44
2018-09-16T11:38:42.494Z,100648.56
2018-09-16T11:41:10.145Z,100655.04
2018-09-16T11:43:37.844Z,100655.09
2018-09-16T11:46:05.526Z,100662.12
2018-09-16T11:48:37.149Z,100657.23
2018-09-16T11:51:05.183Z,100651.41
2018-09-16T11:53:32.846Z,100656.97
2018-09-16T11:56:00.482Z,100645.80
2018-09-16T11:58:28.520Z,100653.59
2018-09-16T12:00:56.208Z,100639.08
2018-09-16T12:03:23.975Z,100640.87
2018-09-16T12:05:51.709Z,100632.52
2018-09-16T12:08:19.578Z,100634.73
2018-09-16T12:10:47.265Z,100622.50
2018-09-16T12:13:15.058Z,100616.53
2018-09-16T12:15:42.803Z,100616.98
2018-09-16T12:18:11.619Z,100614.13
2018-09-16T12:20:41.674Z,100609.69
2018-09-16T12:23:09.451Z,100621.54
2018-09-16T12:25:37.228Z,100619.94
2018-09-16T12:28:04.966Z,100615.72
2018-09-16T12:30:32.850Z,100601.76
2018-09-16T12:33:00.973Z,100609.98
2018-09-16T12:35:28.705Z,100609.16
2018-09-16T12:37:56.467Z,100611.15
2018-09-16T12:40:24.159Z,100594.38
2018-09-16T12:42:51.930Z,100607.85
2018-09-16T12:45:19.651Z,100595.34
2018-09-16T12:47:47.377Z,100539.10
2018-09-16T12:50:15.034Z,100595.03
2018-09-16T12:52:42.714Z,100594.38
2018-09-16T12:55:10.383Z,100589.36
2018-09-16T12:57:38.034Z,100575.00
2018-09-16T13:00:05.910Z,100574.27
2018-09-16T13:02:33.544Z,100576.09
2018-09-16T13:05:01.328Z,100587.12
2018-09-16T13:07:29.293Z,100575.85
2018-09-16T13:09:56.967Z,100573.07
2018-09-16T13:12:24.639Z,100568.30
2018-09-16T13:14:52.408Z,100561.88
2018-09-16T13:17:20.176Z,100565.95
2018-09-16T13:19:47.934Z,100564.78
2018-09-16T13:22:15.657Z,100570.84
2018-09-16T13:24:43.369Z,100562.02
2018-09-16T13:27:11.033Z,100567.87
2018-09-16T13:29:38.775Z,100570.66
2018-09-16T13:32:06.702Z,100566.77
2018-09-16T13:34:34.358Z,100569.39
2018-09-16T13:37:02.104Z,100557.31
2018-09-16T13:39:29.729Z,100555.24
2018-09-16T13:41:57.569Z,100553.59
2018-09-16T13:44:25.254Z,100546.11
2018-09-16T13:46:52.913Z,100543.77
2018-09-16T13:49:20.585Z,100537.09
2018-09-16T13:51:48.348Z,100542.06
2018-09-16T13:54:16.007Z,100535.31
2018-09-16T13:56:44.189Z,100523.64
2018-09-16T13:59:11.973Z,100522.22
2018-09-16T14:01:39.600Z,100520.73
2018-09-16T14:04:07.289Z,100521.34
2018-09-16T14:06:34.941Z,100509.62
2018-09-16T14:09:02.699Z,100507.87
2018-09-16T14:11:30.348Z,100498.64
2018-09-16T14:13:57.962Z,100500.23
2018-09-16T14:16:25.621Z,100502.50
2018-09-16T14:18:53.304Z,100501.28
2018-09-16T14:21:21.047Z,100506.05
2018-09-16T14:23:48.709Z,100496.95
2018-09-16T14:26:16.404Z,100495.13
2018-09-16T14:28:44.108Z,100487.02
2018-09-16T14:31:11.752Z,100488.73
2018-09-16T14:33:39.458Z,100479.64
2018-09-16T14:36:07.107Z,100485.48
2018-09-16T14:38:34.804Z,100479.77
2018-09-16T14:41:02.467Z,100468.84
2018-09-16T14:43:30.074Z,100472.44
2018-09-16T14:45:57.749Z,100456.11
2018-09-16T14:48:25.452Z,100459.14
2018-09-16T14:50:53.122Z,100453.83
2018-09-16T14:53:20.705Z,100448.74
2018-09-16T14:55:48.396Z,100451.41
2018-09-16T14:58:16.090Z,100455.16
2018-09-16T15:00:43.847Z,100453.05
2018-09-16T15:03:11.517Z,100454.18
2018-09-16T15:05:39.148Z,100447.52
2018-09-16T15:08:06.882Z,100448.09
2018-09-16T15:10:34.667Z,100438.64
2018-09-16T15:13:02.344Z,100436.55
2018-09-16T15:15:30.030Z,100442.16
2018-09-16T15:17:57.668Z,100428.83
2018-09-16T15:20:25.343Z,100425.31
2018-09-16T15:22:53.064Z,100422.24
2018-09-16T15:25:20.771Z,100423.78
2018-09-16T15:27:48.431Z,100420.89
2018-09-16T15:30:16.186Z,100419.33
2018-09-16T15:32:43.827Z,100419.28
2018-09-16T15:35:11.477Z,100418.05
2018-09-16T15:37:39.185Z,100413.66
2018-09-16T15:40:06.913Z,100419.53
2018-09-16T15:42:34.741Z,100412.20
2018-09-16T15:45:09.187Z,100409.87
2018-09-16T15:47:36.763Z,100408.95
2018-09-16T15:50:04.925Z,100403.88
2018-09-16T15:52:32.735Z,100403.66
2018-09-16T15:55:00.593Z,100404.36
2018-09-16T16:00:02.721Z,100389.53
2018-09-16T16:02:30.386Z,100394.48
2018-09-16T16:04:58.118Z,100389.64
2018-09-16T16:07:25.824Z,100386.15
2018-09-16T16:09:53.606Z,100376.64
2018-09-16T16:12:21.355Z,100374.81
2018-09-16T16:14:49.223Z,100374.94
2018-09-16T16:17:16.958Z,100372.78
2018-09-16T16:19:44.645Z,100377.50
2018-09-16T16:22:12.411Z,100370.61
2018-09-16T16:24:40.109Z,100377.06
2018-09-16T16:27:07.773Z,100379.17
2018-09-16T16:29:35.942Z,100373.86
2018-09-16T16:32:03.681Z,100371.65
2018-09-16T16:34:31.369Z,100369.12
2018-09-16T16:36:59.061Z,100378.95
2018-09-16T16:39:27.216Z,100375.47
2018-09-16T16:41:54.917Z,100377.27
2018-09-16T16:44:22.643Z,100377.97
2018-09-16T16:46:50.401Z,100384.23
2018-09-16T16:49:18.143Z,100377.89
2018-09-16T16:51:45.850Z,100379.50
2018-09-16T16:54:13.679Z,100380.42
2018-09-16T16:56:41.428Z,100377.27
2018-09-16T16:59:09.204Z,100379.19
2018-09-16T17:01:36.850Z,100373.84
2018-09-16T17:04:04.638Z,100386.90
2018-09-16T17:06:32.294Z,100383.50
2018-09-16T17:08:59.904Z,100383.80
2018-09-16T17:11:27.634Z,100386.81
2018-09-16T17:13:55.322Z,100379.16
2018-09-16T17:16:22.938Z,100385.09
2018-09-16T17:18:50.693Z,100378.25
2018-09-16T17:21:18.378Z,100390.09
2018-09-16T17:23:46.099Z,100388.20
2018-09-16T17:26:13.742Z,100389.48
2018-09-16T17:28:41.374Z,100388.73
2018-09-16T17:31:09.280Z,100382.80
2018-09-16T17:33:36.979Z,100386.52
2018-09-16T17:36:04.666Z,100387.41
2018-09-16T17:38:32.410Z,100383.10
2018-09-16T17:41:00.112Z,100383.31
2018-09-16T17:43:27.724Z,100384.52
2018-09-16T17:45:55.446Z,100381.70
2018-09-16T17:48:23.164Z,100385.05
2018-09-16T17:50:50.841Z,100391.22
2018-09-16T17:53:18.649Z,100386.57
2018-09-16T17:55:46.434Z,100395.25
2018-09-16T17:58:14.098Z,100388.25
2018-09-16T18:00:41.890Z,100392.41
2018-09-16T18:03:09.718Z,100390.07
2018-09-16T18:05:37.388Z,100396.73
2018-09-16T18:08:05.288Z,100400.38
2018-09-16T18:10:32.987Z,100407.20
2018-09-16T18:13:00.774Z,100408.69
2018-09-16T18:15:28.426Z,100399.03
2018-09-16T18:17:56.139Z,100405.70
2018-09-16T18:20:24.132Z,100405.67
2018-09-16T18:22:51.918Z,100406.52
2018-09-16T18:25:19.946Z,100402.53
2018-09-16T18:27:47.894Z,100401.85
2018-09-16T18:30:15.772Z,100387.50
2018-09-16T18:35:21.147Z,100407.30
2018-09-16T18:37:48.889Z,100408.45
2018-09-16T18:40:16.874Z,100409.75
2018-09-16T18:42:45.068Z,100407.39
2018-09-16T18:45:12.874Z,100406.41
2018-09-16T18:47:40.600Z,100398.05
2018-09-16T18:50:08.703Z,100403.21
2018-09-16T18:52:36.439Z,100404.34
2018-09-16T18:55:04.330Z,100407.80
2018-09-16T18:57:32.024Z,100408.78
2018-09-16T19:00:00.025Z,100407.25
2018-09-16T19:02:27.725Z,100409.03
2018-09-16T19:04:55.514Z,100411.66
2018-09-16T19:07:23.584Z,100408.95
2018-09-16T19:09:51.412Z,100401.10
2018-09-16T19:12:19.282Z,100403.41
2018-09-16T19:14:47.144Z,100404.12
2018-09-16T19:17:15.056Z,100397.81
2018-09-16T19:19:43.294Z,100404.38
2018-09-16T19:22:11.013Z,100399.67
2018-09-16T19:24:38.764Z,100392.91
2018-09-16T19:27:07.444Z,100392.23
2018-09-16T19:29:35.596Z,100391.75
2018-09-16T19:32:03.556Z,100395.15
2018-09-16T19:34:31.382Z,100393.94
2018-09-16T19:36:59.169Z,100393.43
2018-09-16T19:39:27.420Z,100401.19
2018-09-16T19:41:55.574Z,100404.91
2018-09-16T19:44:23.627Z,100401.77
2018-09-16T19:46:51.585Z,100397.67
2018-09-16T19:49:19.406Z,100405.88
2018-09-16T19:51:47.302Z,100404.17
2018-09-16T19:54:15.448Z,100402.39
2018-09-16T19:56:43.492Z,100410.11
2018-09-16T19:59:11.833Z,100407.91
2018-09-16T20:01:40.653Z,100406.48
2018-09-16T20:04:10.493Z,100403.09
2018-09-16T20:06:38.722Z,100407.38
2018-09-16T20:09:09.439Z,100393.56
2018-09-16T20:11:37.146Z,100402.52
2018-09-16T20:14:05.034Z,100399.13
2018-09-16T20:16:33.093Z,100404.44
2018-09-16T20:19:00.972Z,100411.33
2018-09-16T20:21:28.949Z,100403.83
2018-09-16T20:23:56.674Z,100407.69
2018-09-16T20:26:24.870Z,100399.61
2018-09-16T20:28:52.646Z,100404.73
2018-09-16T20:31:20.445Z,100403.41
2018-09-16T20:33:48.495Z,100405.45
2018-09-16T20:36:16.322Z,100395.79
2018-09-16T20:38:44.350Z,100406.34
2018-09-16T20:41:16.642Z,100398.61
2018-09-16T20:43:44.431Z,100402.81
2018-09-16T20:46:12.170Z,100400.20
2018-09-16T20:48:39.927Z,100401.73
2018-09-16T20:51:07.591Z,100403.14
2018-09-16T20:53:35.318Z,100399.37
2018-09-16T20:56:03.045Z,100396.81
2018-09-16T20:58:30.852Z,100409.28
2018-09-16T21:00:58.688Z,100408.78
2018-09-16T21:03:26.385Z,100414.98
2018-09-16T21:05:54.109Z,100418.31
2018-09-16T21:08:21.760Z,100418.86
2018-09-16T21:10:49.492Z,100416.19
2018-09-16T21:13:17.907Z,100412.48
2018-09-16T21:15:45.739Z,100417.83
2018-09-16T21:18:13.743Z,100418.25
2018-09-16T21:20:41.430Z,100424.21
2018-09-16T21:23:09.145Z,100424.39
2018-09-16T21:25:37.006Z,100428.42
2018-09-16T21:28:04.753Z,100428.05
2018-09-16T21:30:32.413Z,100426.30
2018-09-16T21:33:00.331Z,100426.48
2018-09-16T21:35:27.987Z,100423.28
2018-09-16T21:37:55.647Z,100419.52
2018-09-16T21:40:23.311Z,100414.08
2018-09-16T21:42:50.996Z,100411.62
2018-09-16T21:45:18.806Z,100412.19
2018-09-16T21:47:46.545Z,100406.75
2018-09-16T21:50:14.219Z,100405.91
2018-09-16T21:52:41.936Z,100408.72
2018-09-16T21:55:09.589Z,100402.00
2018-09-16T21:57:37.293Z,100406.13
2018-09-16T22:00:06.289Z,100399.84
2018-09-16T22:02:33.955Z,100397.48
2018-09-16T22:05:02.070Z,100399.64
2018-09-16T22:07:29.762Z,100392.33
2018-09-16T22:09:57.551Z,100393.56
2018-09-16T22:12:25.174Z,100393.09
2018-09-16T22:14:52.846Z,100392.38
2018-09-16T22:17:20.579Z,100384.09
2018-09-16T22:19:48.220Z,100384.33
2018-09-16T22:22:15.854Z,100377.37
2018-09-16T22:24:43.494Z,100371.30
2018-09-16T22:27:11.090Z,100378.11
2018-09-16T22:29:38.748Z,100371.83
2018-09-16T22:32:06.380Z,100374.59
2018-09-16T22:34:34.026Z,100372.08
2018-09-16T22:37:01.689Z,100374.59
2018-09-16T22:39:29.354Z,100374.88
2018-09-16T22:41:56.970Z,100373.80
2018-09-16T22:44:24.578Z,100375.23
2018-09-16T22:46:52.201Z,100372.59
2018-09-16T22:49:19.828Z,100372.95
2018-09-16T22:51:47.838Z,100367.59
2018-09-16T22:54:15.566Z,100374.59
2018-09-16T22:56:43.211Z,100380.55
2018-09-16T22:59:10.849Z,100377.10
2018-09-16T23:01:38.498Z,100378.66
2018-09-16T23:04:06.211Z,100375.70
2018-09-16T23:06:33.886Z,100378.70
2018-09-16T23:09:07.265Z,100389.13
2018-09-16T23:11:34.870Z,100384.48
2018-09-16T23:14:02.604Z,100386.40
2018-09-16T23:16:30.248Z,100381.12
2018-09-16T23:18:58.000Z,100383.40
2018-09-16T23:21:25.573Z,100377.95
2018-09-16T23:23:53.228Z,100377.34
2018-09-16T23:26:21.821Z,100378.66
2018-09-16T23:28:49.603Z,100378.57
2018-09-16T23:31:17.297Z,100381.11
2018-09-16T23:33:45.030Z,100378.83
2018-09-16T23:36:13.065Z,100377.66
2018-09-16T23:38:40.769Z,100380.66
2018-09-16T23:41:08.493Z,100372.53
2018-09-16T23:43:36.182Z,100379.49
2018-09-16T23:46:03.857Z,100377.96
2018-09-16T23:48:31.545Z,100377.22
2018-09-16T23:50:59.255Z,100371.38
2018-09-16T23:53:26.906Z,100371.12
2018-09-16T23:55:54.547Z,100372.92
2018-09-16T23:58:22.175Z,100372.69
